createdAt,value
2022-10-28T00:01:32.976Z,15.20
2022-10-28T00:04:02.675Z,15.10
2022-10-28T00:06:33.394Z,15.10
2022-10-28T00:09:05.613Z,15.20
2022-10-28T00:11:37.275Z,15.10
2022-10-28T00:14:08.282Z,15.10
2022-10-28T00:16:39.006Z,15.10
2022-10-28T00:19:11.287Z,15.10
2022-10-28T00:21:43.564Z,15.10
2022-10-28T00:24:15.077Z,15.10
2022-10-28T00:26:45.924Z,15.10
2022-10-28T00:29:18.432Z,15.10
2022-10-28T00:31:49.405Z,15.10
2022-10-28T00:34:21.286Z,15.10
2022-10-28T00:36:52.059Z,15.10
2022-10-28T00:39:23.463Z,15.10
2022-10-28T00:41:53.695Z,15.10
2022-10-28T00:44:54.377Z,15.10
2022-10-28T00:47:40.496Z,15.10
2022-10-28T00:50:25.423Z,15.10
2022-10-28T00:53:01.133Z,15.10
2022-10-28T00:55:32.359Z,15.10
2022-10-28T00:58:02.112Z,15.10
2022-10-28T01:00:32.531Z,15.10
2022-10-28T01:03:00.857Z,15.10
2022-10-28T01:05:34.444Z,15.10
2022-10-28T01:08:06.581Z,15.20
2022-10-28T01:11:00.360Z,15.10
2022-10-28T01:13:40.287Z,15.10
2022-10-28T01:16:19.964Z,15.10
2022-10-28T01:19:01.020Z,15.10
2022-10-28T01:22:02.520Z,15.10
2022-10-28T01:24:57.484Z,15.10
2022-10-28T01:28:00.241Z,15.10
2022-10-28T01:30:29.991Z,15.10
2022-10-28T01:33:09.165Z,15.10
2022-10-28T01:35:49.588Z,15.10
2022-10-28T01:38:29.285Z,15.00
2022-10-28T01:41:06.293Z,15.10
2022-10-28T01:43:42.352Z,15.00
2022-10-28T01:46:16.631Z,15.00
2022-10-28T01:48:52.145Z,15.00
2022-10-28T01:51:27.592Z,15.00
2022-10-28T01:53:59.384Z,15.00
2022-10-28T01:56:31.516Z,15.00
2022-10-28T01:59:04.425Z,14.90
2022-10-28T02:01:34.028Z,15.00
2022-10-28T02:04:04.294Z,14.90
2022-10-28T02:06:34.782Z,14.90
2022-10-28T02:09:20.029Z,14.90
2022-10-28T02:12:10.918Z,14.90
2022-10-28T02:15:18.520Z,14.90
2022-10-28T02:17:56.442Z,14.90
2022-10-28T02:20:35.795Z,14.90
2022-10-28T02:23:17.706Z,14.80
2022-10-28T02:25:53.581Z,14.80
2022-10-28T02:28:26.029Z,14.80
2022-10-28T02:31:00.279Z,14.80
2022-10-28T02:33:34.396Z,14.80
2022-10-28T02:36:08.895Z,14.70
2022-10-28T02:38:40.410Z,14.70
2022-10-28T02:41:16.776Z,14.70
2022-10-28T02:43:48.240Z,14.60
2022-10-28T02:46:20.216Z,14.60
2022-10-28T02:48:54.224Z,14.60
2022-10-28T02:51:30.608Z,14.60
2022-10-28T02:54:04.843Z,14.60
2022-10-28T02:56:38.487Z,14.50
2022-10-28T02:59:11.094Z,14.50
2022-10-28T03:01:39.665Z,14.50
2022-10-28T03:04:07.950Z,14.40
2022-10-28T03:06:37.500Z,14.50
2022-10-28T03:09:05.682Z,14.40
2022-10-28T03:11:34.037Z,14.40
2022-10-28T03:14:02.172Z,14.40
2022-10-28T03:16:30.292Z,14.40
2022-10-28T03:18:58.634Z,14.40
2022-10-28T03:21:26.754Z,14.30
2022-10-28T03:23:56.316Z,14.30
2022-10-28T03:26:24.519Z,14.30
2022-10-28T03:28:52.842Z,14.30
2022-10-28T03:31:23.427Z,14.20
2022-10-28T03:33:53.928Z,14.20
2022-10-28T03:36:22.048Z,14.20
2022-10-28T03:38:50.155Z,14.20
2022-10-28T03:41:19.630Z,14.10
2022-10-28T03:43:47.718Z,14.10
2022-10-28T03:46:15.783Z,14.10
2022-10-28T03:48:43.855Z,14.10
2022-10-28T03:51:12.002Z,14.10
2022-10-28T03:53:40.111Z,14.00
2022-10-28T03:56:08.863Z,14.00
2022-10-28T03:58:41.049Z,14.00
2022-10-28T04:01:12.386Z,13.90
2022-10-28T04:03:40.717Z,13.90
2022-10-28T04:06:09.975Z,13.90
2022-10-28T04:08:38.380Z,13.90
2022-10-28T04:11:06.858Z,13.90
2022-10-28T04:13:38.874Z,13.90
2022-10-28T04:16:09.339Z,13.90
2022-10-28T04:18:37.448Z,13.80
2022-10-28T04:21:05.863Z,13.80
2022-10-28T04:23:34.045Z,13.80
2022-10-28T04:26:02.263Z,13.70
2022-10-28T04:28:30.387Z,13.80
2022-10-28T04:31:00.032Z,13.70
2022-10-28T04:33:28.254Z,13.70
2022-10-28T04:35:59.361Z,13.70
2022-10-28T04:38:27.521Z,13.60
2022-10-28T04:40:55.685Z,13.60
2022-10-28T04:43:23.853Z,13.50
2022-10-28T04:45:51.930Z,13.50
2022-10-28T04:48:23.623Z,13.50
2022-10-28T04:50:52.217Z,13.50
2022-10-28T04:53:20.394Z,13.40
2022-10-28T04:55:48.638Z,13.40
2022-10-28T04:58:16.751Z,13.40
2022-10-28T05:00:44.857Z,13.40
2022-10-28T05:03:12.993Z,13.30
2022-10-28T05:05:44.802Z,13.30
2022-10-28T05:08:12.954Z,13.30
2022-10-28T05:10:41.084Z,13.30
2022-10-28T05:13:09.212Z,13.20
2022-10-28T05:15:39.667Z,13.20
2022-10-28T05:18:10.076Z,13.20
2022-10-28T05:20:38.203Z,13.20
2022-10-28T05:23:07.822Z,13.10
2022-10-28T05:25:35.951Z,13.10
2022-10-28T05:28:06.881Z,13.10
2022-10-28T05:30:35.055Z,13.10
2022-10-28T05:33:05.511Z,13.10
2022-10-28T05:35:35.940Z,13.10
2022-10-28T05:38:04.174Z,13.10
2022-10-28T05:40:36.238Z,13.10
2022-10-28T05:43:06.630Z,13.00
2022-10-28T05:45:34.733Z,13.00
2022-10-28T05:48:10.354Z,13.00
2022-10-28T05:50:38.523Z,13.00
2022-10-28T05:53:08.967Z,13.00
2022-10-28T05:55:38.603Z,13.00
2022-10-28T05:58:10.078Z,12.90
2022-10-28T06:00:38.230Z,13.00
2022-10-28T06:03:09.500Z,13.00
2022-10-28T06:05:38.272Z,13.00
2022-10-28T06:08:07.049Z,12.90
2022-10-28T06:10:35.299Z,12.90
2022-10-28T06:13:03.921Z,12.90
2022-10-28T06:15:32.098Z,12.90
2022-10-28T06:18:00.486Z,12.90
2022-10-28T06:20:31.273Z,12.90
2022-10-28T06:22:59.459Z,12.90
2022-10-28T06:25:27.616Z,12.90
2022-10-28T06:27:57.365Z,12.90
2022-10-28T06:30:27.728Z,12.90
2022-10-28T06:32:56.809Z,12.90
2022-10-28T06:35:27.019Z,12.90
2022-10-28T06:37:55.702Z,12.90
2022-10-28T06:40:24.893Z,12.90
2022-10-28T06:42:59.233Z,12.90
2022-10-28T06:45:29.548Z,12.90
2022-10-28T06:47:59.624Z,12.90
2022-10-28T06:50:28.624Z,12.90
2022-10-28T06:52:57.538Z,13.00
2022-10-28T06:55:25.824Z,13.00
2022-10-28T06:57:59.971Z,13.00
2022-10-28T07:00:33.324Z,13.00
2022-10-28T07:03:04.090Z,13.00
2022-10-28T07:05:34.826Z,13.00
2022-10-28T07:08:06.021Z,13.00
2022-10-28T07:10:36.733Z,13.00
2022-10-28T07:13:04.908Z,13.00
2022-10-28T07:15:34.404Z,13.00
2022-10-28T07:18:02.693Z,13.10
2022-10-28T07:20:32.961Z,13.10
2022-10-28T07:23:03.060Z,13.10
2022-10-28T07:25:32.177Z,13.20
2022-10-28T07:28:00.760Z,13.30
2022-10-28T07:30:31.293Z,13.30
2022-10-28T07:33:01.241Z,13.40
2022-10-28T07:35:30.069Z,13.50
2022-10-28T07:37:58.526Z,13.50
2022-10-28T07:40:27.273Z,13.60
2022-10-28T07:42:55.611Z,13.60
2022-10-28T07:45:27.195Z,13.70
2022-10-28T07:47:57.676Z,13.80
2022-10-28T07:50:27.154Z,13.90
2022-10-28T07:52:55.712Z,14.00
2022-10-28T07:55:26.953Z,14.10
2022-10-28T07:57:57.394Z,14.30
2022-10-28T08:00:25.730Z,14.40
2022-10-28T08:02:56.081Z,14.40
2022-10-28T08:05:24.184Z,14.50
2022-10-28T08:07:53.806Z,14.70
2022-10-28T08:10:24.859Z,14.80
2022-10-28T08:13:01.029Z,14.90
2022-10-28T08:15:29.831Z,15.00
2022-10-28T08:17:58.429Z,15.10
2022-10-28T08:20:26.583Z,15.30
2022-10-28T08:23:02.759Z,15.30
2022-10-28T08:25:35.456Z,15.40
2022-10-28T08:28:06.019Z,15.50
2022-10-28T08:30:50.237Z,15.70
2022-10-28T08:33:22.492Z,15.80
2022-10-28T08:35:53.781Z,15.90
2022-10-28T08:38:23.378Z,16.00
2022-10-28T08:41:04.641Z,16.10
2022-10-28T08:43:57.238Z,16.20
2022-10-28T08:46:48.631Z,16.40
2022-10-28T08:49:21.751Z,16.50
2022-10-28T08:51:54.938Z,16.60
2022-10-28T08:54:28.613Z,16.70
2022-10-28T08:56:59.800Z,16.90
2022-10-28T08:59:34.349Z,16.90
2022-10-28T09:02:13.188Z,16.90
2022-10-28T09:04:43.458Z,17.00
2022-10-28T09:07:18.824Z,17.00
2022-10-28T09:09:50.320Z,17.10
2022-10-28T09:12:28.928Z,17.20
2022-10-28T09:15:25.241Z,17.30
2022-10-28T09:17:56.061Z,17.40
2022-10-28T09:20:51.690Z,17.50
2022-10-28T09:23:29.671Z,17.60
2022-10-28T09:26:20.159Z,17.70
2022-10-28T09:28:59.253Z,17.80
2022-10-28T09:31:35.939Z,17.90
2022-10-28T09:34:26.102Z,18.00
2022-10-28T09:37:01.219Z,18.10
2022-10-28T09:39:38.424Z,18.30
2022-10-28T09:42:11.003Z,18.40
2022-10-28T09:44:45.618Z,18.60
2022-10-28T09:47:18.421Z,18.70
2022-10-28T09:49:50.654Z,18.80
2022-10-28T09:52:23.799Z,18.90
2022-10-28T09:54:53.311Z,19.00
2022-10-28T09:57:25.757Z,19.00
2022-10-28T09:59:54.731Z,19.10
2022-10-28T10:02:29.593Z,19.10
2022-10-28T10:04:59.472Z,19.10
2022-10-28T10:07:34.528Z,19.20
2022-10-28T10:10:07.086Z,19.20
2022-10-28T10:12:40.033Z,19.20
2022-10-28T10:15:17.730Z,19.20
2022-10-28T10:17:48.677Z,19.30
2022-10-28T10:20:19.605Z,19.30
2022-10-28T10:22:50.841Z,19.30
2022-10-28T10:25:29.822Z,19.30
2022-10-28T10:28:03.297Z,19.30
2022-10-28T10:30:35.749Z,19.30
2022-10-28T10:33:04.707Z,19.30
2022-10-28T10:35:34.402Z,19.30
2022-10-28T10:38:05.680Z,19.30
2022-10-28T10:40:36.316Z,19.40
2022-10-28T10:43:23.436Z,19.50
2022-10-28T10:46:00.964Z,19.50
2022-10-28T10:48:30.306Z,19.60
2022-10-28T10:50:58.814Z,19.60
2022-10-28T10:53:28.648Z,19.80
2022-10-28T10:56:00.666Z,19.80
2022-10-28T10:58:32.316Z,19.90
2022-10-28T11:01:03.410Z,20.00
2022-10-28T11:03:38.361Z,20.10
2022-10-28T11:06:23.068Z,20.20
2022-10-28T11:08:57.221Z,20.30
2022-10-28T11:11:34.449Z,20.30
2022-10-28T11:14:18.204Z,20.40
2022-10-28T11:16:51.688Z,20.50
2022-10-28T11:19:29.785Z,20.50
2022-10-28T11:22:13.591Z,20.50
2022-10-28T11:25:01.690Z,20.50
2022-10-28T11:27:40.943Z,20.50
2022-10-28T11:30:17.437Z,20.60
2022-10-28T11:33:02.182Z,20.60
2022-10-28T11:35:55.828Z,20.60
2022-10-28T11:38:45.422Z,20.60
2022-10-28T11:41:23.239Z,20.70
2022-10-28T11:43:55.373Z,20.70
2022-10-28T11:46:39.853Z,20.80
2022-10-28T11:49:45.559Z,20.90
2022-10-28T11:52:26.677Z,20.90
2022-10-28T11:55:09.441Z,21.00
2022-10-28T11:57:52.767Z,21.00
2022-10-28T12:00:36.866Z,21.10
2022-10-28T12:03:36.120Z,21.10
2022-10-28T12:06:16.204Z,21.20
2022-10-28T12:08:54.666Z,21.30
2022-10-28T12:11:43.320Z,21.20
2022-10-28T12:14:19.052Z,21.20
2022-10-28T12:16:53.458Z,21.30
2022-10-28T12:19:26.766Z,21.30
2022-10-28T12:22:01.095Z,21.30
2022-10-28T12:24:36.000Z,21.40
2022-10-28T12:27:13.875Z,21.40
2022-10-28T12:29:51.282Z,21.40
2022-10-28T12:32:25.189Z,21.50
2022-10-28T12:35:01.462Z,21.40
2022-10-28T12:37:42.074Z,21.40
2022-10-28T12:40:21.716Z,21.50
2022-10-28T12:42:55.035Z,21.50
2022-10-28T12:45:26.165Z,21.50
2022-10-28T12:48:00.873Z,21.50
2022-10-28T12:50:37.624Z,21.60
2022-10-28T12:53:25.332Z,21.60
2022-10-28T12:55:59.932Z,21.60
2022-10-28T12:58:33.704Z,21.60
2022-10-28T13:01:09.167Z,21.60
2022-10-28T13:03:37.657Z,21.60
2022-10-28T13:06:33.380Z,21.60
2022-10-28T13:09:26.204Z,21.70
2022-10-28T13:12:25.433Z,21.70
2022-10-28T13:15:26.713Z,21.70
2022-10-28T13:18:19.103Z,21.60
2022-10-28T13:20:53.913Z,21.70
2022-10-28T13:23:31.879Z,21.70
2022-10-28T13:26:11.171Z,21.60
2022-10-28T13:28:47.274Z,21.70
2022-10-28T13:31:16.233Z,21.70
2022-10-28T13:33:52.668Z,21.70
2022-10-28T13:36:26.245Z,21.70
2022-10-28T13:38:59.713Z,21.80
2022-10-28T13:41:34.472Z,21.80
2022-10-28T13:44:28.105Z,21.80
2022-10-28T13:47:33.155Z,21.80
2022-10-28T13:50:35.382Z,21.80
2022-10-28T13:53:43.784Z,21.80
2022-10-28T13:56:33.748Z,21.80
2022-10-28T13:59:04.877Z,21.80
2022-10-28T14:02:07.438Z,21.80
2022-10-28T14:04:44.219Z,21.80
2022-10-28T14:07:26.676Z,21.80
2022-10-28T14:09:59.537Z,21.80
2022-10-28T14:12:33.674Z,21.80
2022-10-28T14:15:16.911Z,21.80
2022-10-28T14:17:49.216Z,21.80
2022-10-28T14:20:38.586Z,21.80
2022-10-28T14:23:57.546Z,21.80
2022-10-28T14:26:25.709Z,21.80
2022-10-28T14:28:56.711Z,21.80
2022-10-28T14:31:49.023Z,21.80
2022-10-28T14:34:44.479Z,21.80
2022-10-28T14:37:45.078Z,21.80
2022-10-28T14:40:24.636Z,21.80
2022-10-28T14:43:30.536Z,21.80
2022-10-28T14:46:26.523Z,21.80
2022-10-28T14:48:56.703Z,21.80
2022-10-28T14:51:27.225Z,21.80
2022-10-28T14:53:59.927Z,21.70
2022-10-28T14:56:30.243Z,21.70
2022-10-28T14:59:01.756Z,21.70
2022-10-28T15:01:50.612Z,21.60
2022-10-28T15:04:19.888Z,21.60
2022-10-28T15:06:51.214Z,21.60
2022-10-28T15:09:22.139Z,21.50
2022-10-28T15:11:55.882Z,21.40
2022-10-28T15:14:33.897Z,21.40
2022-10-28T15:17:13.448Z,21.40
2022-10-28T15:19:41.974Z,21.30
2022-10-28T15:22:19.169Z,21.30
2022-10-28T15:24:58.585Z,21.20
2022-10-28T15:27:29.222Z,21.20
2022-10-28T15:29:57.913Z,21.20
2022-10-28T15:32:32.803Z,21.20
2022-10-28T15:35:38.162Z,21.20
2022-10-28T15:38:33.056Z,21.10
2022-10-28T15:41:01.383Z,21.10
2022-10-28T15:43:32.547Z,21.10
2022-10-28T15:46:11.373Z,21.10
2022-10-28T15:48:40.958Z,21.00
2022-10-28T15:51:13.214Z,21.00
2022-10-28T15:53:42.199Z,21.00
2022-10-28T15:56:24.872Z,20.90
2022-10-28T15:59:09.101Z,20.90
2022-10-28T16:01:39.498Z,20.90
2022-10-28T16:04:43.482Z,20.80
2022-10-28T16:07:12.053Z,20.80
2022-10-28T16:09:46.462Z,20.80
2022-10-28T16:12:16.685Z,20.70
2022-10-28T16:14:49.168Z,20.70
2022-10-28T16:17:19.473Z,20.70
2022-10-28T16:19:52.310Z,20.60
2022-10-28T16:22:21.859Z,20.60
2022-10-28T16:24:52.011Z,20.60
2022-10-28T16:27:22.110Z,20.60
2022-10-28T16:29:51.138Z,20.50
2022-10-28T16:32:28.656Z,20.50
2022-10-28T16:34:58.802Z,20.40
2022-10-28T16:37:28.570Z,20.40
2022-10-28T16:39:57.769Z,20.30
2022-10-28T16:42:26.243Z,20.30
2022-10-28T16:44:56.857Z,20.20
2022-10-28T16:47:26.770Z,20.20
2022-10-28T16:49:58.762Z,20.10
2022-10-28T16:52:29.141Z,20.10
2022-10-28T16:54:57.820Z,20.10
2022-10-28T16:57:26.631Z,20.00
2022-10-28T16:59:55.155Z,20.00
2022-10-28T17:02:27.405Z,19.90
2022-10-28T17:04:59.901Z,19.90
2022-10-28T17:07:28.690Z,19.90
2022-10-28T17:09:56.954Z,19.90
2022-10-28T17:12:27.196Z,19.80
2022-10-28T17:14:57.988Z,19.80
2022-10-28T17:17:26.245Z,19.70
2022-10-28T17:19:54.399Z,19.70
2022-10-28T17:22:26.821Z,19.60
2022-10-28T17:24:55.550Z,19.60
2022-10-28T17:27:23.723Z,19.60
2022-10-28T17:29:52.080Z,19.60
2022-10-28T17:32:20.386Z,19.50
2022-10-28T17:34:48.506Z,19.50
2022-10-28T17:37:16.645Z,19.40
2022-10-28T17:39:46.217Z,19.40
2022-10-28T17:42:14.366Z,19.30
2022-10-28T17:44:42.489Z,19.30
2022-10-28T17:47:12.277Z,19.30
2022-10-28T17:49:40.430Z,19.20
2022-10-28T17:52:08.552Z,19.10
2022-10-28T17:54:38.702Z,19.10
2022-10-28T17:57:08.278Z,19.00
2022-10-28T17:59:36.541Z,18.90
2022-10-28T18:02:04.984Z,18.90
2022-10-28T18:04:33.260Z,18.80
2022-10-28T18:07:01.343Z,18.80
2022-10-28T18:09:31.870Z,18.70
2022-10-28T18:12:01.902Z,18.70
2022-10-28T18:14:31.620Z,18.60
2022-10-28T18:16:59.741Z,18.60
2022-10-28T18:19:27.867Z,18.50
2022-10-28T18:21:56.095Z,18.50
2022-10-28T18:24:26.067Z,18.50
2022-10-28T18:26:56.846Z,18.40
2022-10-28T18:29:25.355Z,18.40
2022-10-28T18:31:56.714Z,18.40
2022-10-28T18:34:25.102Z,18.40
2022-10-28T18:36:53.397Z,18.30
2022-10-28T18:39:21.720Z,18.30
2022-10-28T18:41:51.498Z,18.30
2022-10-28T18:44:27.130Z,18.30
2022-10-28T18:46:56.787Z,18.30
2022-10-28T18:49:25.075Z,18.20
2022-10-28T18:51:53.313Z,18.20
2022-10-28T18:54:21.540Z,18.20
2022-10-28T18:56:53.560Z,18.10
2022-10-28T18:59:23.466Z,18.10
2022-10-28T19:01:51.815Z,18.00
2022-10-28T19:04:21.557Z,18.00
2022-10-28T19:06:50.130Z,17.90
2022-10-28T19:09:18.408Z,17.90
2022-10-28T19:11:48.746Z,17.90
2022-10-28T19:14:17.168Z,17.90
2022-10-28T19:16:45.391Z,17.80
2022-10-28T19:19:13.726Z,17.80
2022-10-28T19:21:43.381Z,17.70
2022-10-28T19:24:11.737Z,17.70
2022-10-28T19:26:40.385Z,17.70
2022-10-28T19:29:08.671Z,17.60
2022-10-28T19:31:39.613Z,17.60
2022-10-28T19:34:07.877Z,17.50
2022-10-28T19:36:36.310Z,17.50
2022-10-28T19:39:05.892Z,17.40
2022-10-28T19:41:34.112Z,17.40
2022-10-28T19:44:03.576Z,17.40
2022-10-28T19:46:34.203Z,17.40
2022-10-28T19:49:05.207Z,17.40
2022-10-28T19:51:35.576Z,17.30
2022-10-28T19:54:06.966Z,17.30
2022-10-28T19:56:36.274Z,17.20
2022-10-28T19:59:05.971Z,17.30
2022-10-28T20:01:36.378Z,17.20
2022-10-28T20:04:05.402Z,17.20
2022-10-28T20:06:35.876Z,17.20
2022-10-28T20:09:06.349Z,17.20
2022-10-28T20:11:37.434Z,17.10
2022-10-28T20:14:08.433Z,17.10
2022-10-28T20:16:37.153Z,17.10
2022-10-28T20:19:07.521Z,17.10
2022-10-28T20:21:37.284Z,17.10
2022-10-28T20:24:09.681Z,17.10
2022-10-28T20:26:39.507Z,17.10
2022-10-28T20:29:09.687Z,17.10
2022-10-28T20:31:38.911Z,17.10
2022-10-28T20:34:07.721Z,17.10
2022-10-28T20:36:38.087Z,17.10
2022-10-28T20:39:10.749Z,17.00
2022-10-28T20:41:40.605Z,17.00
2022-10-28T20:44:09.877Z,17.00
2022-10-28T20:46:38.677Z,17.00
2022-10-28T20:49:08.655Z,16.90
2022-10-28T20:51:37.472Z,16.90
2022-10-28T20:54:09.712Z,16.90
2022-10-28T20:56:40.293Z,16.90
2022-10-28T20:59:08.892Z,16.90
2022-10-28T21:01:38.901Z,16.80
2022-10-28T21:04:08.743Z,16.80
2022-10-28T21:06:38.069Z,16.80
2022-10-28T21:09:06.842Z,16.70
2022-10-28T21:11:39.519Z,16.70
2022-10-28T21:14:07.832Z,16.70
2022-10-28T21:16:36.045Z,16.60
2022-10-28T21:19:04.407Z,16.60
2022-10-28T21:21:34.622Z,16.50
2022-10-28T21:24:02.900Z,16.50
2022-10-28T21:26:31.121Z,16.40
2022-10-28T21:29:03.222Z,16.40
2022-10-28T21:31:31.526Z,16.40
2022-10-28T21:34:01.808Z,16.30
2022-10-28T21:36:32.606Z,16.30
2022-10-28T21:39:00.783Z,16.30
2022-10-28T21:41:29.796Z,16.20
2022-10-28T21:43:58.000Z,16.20
2022-10-28T21:46:28.117Z,16.10
2022-10-28T21:48:56.411Z,16.10
2022-10-28T21:51:24.706Z,16.00
2022-10-28T21:53:55.177Z,16.00
2022-10-28T21:56:27.477Z,16.00
2022-10-28T21:58:55.855Z,15.90
2022-10-28T22:01:25.053Z,15.90
2022-10-28T22:03:56.668Z,15.80
2022-10-28T22:06:25.162Z,15.80
2022-10-28T22:08:56.530Z,15.80
2022-10-28T22:11:25.468Z,15.70
2022-10-28T22:13:58.102Z,15.70
2022-10-28T22:16:27.232Z,15.70
2022-10-28T22:18:58.556Z,15.60
2022-10-28T22:21:28.335Z,15.60
2022-10-28T22:23:56.500Z,15.60
2022-10-28T22:26:26.605Z,15.60
2022-10-28T22:28:55.054Z,15.50
2022-10-28T22:31:25.074Z,15.50
2022-10-28T22:33:57.684Z,15.50
2022-10-28T22:36:28.367Z,15.50
2022-10-28T22:38:56.922Z,15.50
2022-10-28T22:41:28.886Z,15.50
2022-10-28T22:43:58.193Z,15.50
2022-10-28T22:46:30.860Z,15.40
2022-10-28T22:49:02.801Z,15.40
2022-10-28T22:51:33.424Z,15.40
2022-10-28T22:54:01.568Z,15.30
2022-10-28T22:56:29.734Z,15.30
2022-10-28T22:58:59.596Z,15.30
2022-10-28T23:01:29.050Z,15.30
2022-10-28T23:03:57.363Z,15.30
2022-10-28T23:06:28.149Z,15.20
2022-10-28T23:08:56.372Z,15.20
2022-10-28T23:11:24.793Z,15.20
2022-10-28T23:13:53.863Z,15.20
2022-10-28T23:16:25.272Z,15.20
2022-10-28T23:18:55.889Z,15.20
2022-10-28T23:21:27.582Z,15.20
2022-10-28T23:23:56.903Z,15.20
2022-10-28T23:26:29.049Z,15.20
2022-10-28T23:29:01.074Z,15.20
2022-10-28T23:31:30.139Z,15.10
2022-10-28T23:33:59.197Z,15.10
2022-10-28T23:36:31.855Z,15.10
2022-10-28T23:39:02.451Z,15.10
2022-10-28T23:41:30.564Z,15.10
2022-10-28T23:44:00.560Z,15.00
2022-10-28T23:46:32.312Z,15.00
2022-10-28T23:49:03.019Z,15.00
2022-10-28T23:51:32.672Z,15.00
2022-10-28T23:54:00.983Z,15.00
2022-10-28T23:56:31.157Z,15.00
2022-10-28T23:58:59.498Z,15.00
